Time;durP1;ratioP1;P1;durP2;ratioP2;P2;SDS_P1;SDS_P2;PMS_P1;PMS_P2;Temp;Humidity;BMP_temperature;BMP_pressure;BME280_temperature;BME280_humidity;BME280_pressure;Samples;Min_cycle;Max_cycle;Signal;HPM_P1;HPM_P2
2023/02/07 00:00:06;;;;;;;1999.90;999.90;;;1.60;19.50;;;;;;5045431;28;20212;-70
2023/02/07 00:02:32;;;;;;;1999.90;999.90;;;1.50;16.20;;;;;;5037806;28;20642;-69
2023/02/07 00:04:58;;;;;;;1999.90;999.90;;;1.50;18.50;;;;;;5041290;28;20184;-70
2023/02/07 00:07:24;;;;;;;1999.90;999.90;;;1.50;19.10;;;;;;5041267;28;20203;-69
2023/02/07 00:09:50;;;;;;;1999.90;999.90;;;;;;;;;;5043382;28;20790;-70
2023/02/07 00:12:16;;;;;;;1999.90;999.90;;;1.40;23.00;;;;;;5045543;28;20176;-69
2023/02/07 00:14:41;;;;;;;1999.90;999.90;;;1.50;25.30;;;;;;5034903;28;20450;-69
2023/02/07 00:17:07;;;;;;;1999.90;999.90;;;1.40;24.10;;;;;;5038444;28;20287;-69
2023/02/07 00:19:33;;;;;;;1999.90;999.90;;;1.40;21.50;;;;;;5041153;28;20216;-70
2023/02/07 00:21:58;;;;;;;1999.90;999.90;;;1.40;26.30;;;;;;5047130;28;20173;-69
2023/02/07 00:24:24;;;;;;;1999.90;999.90;;;1.40;30.00;;;;;;5018913;28;20521;-69
2023/02/07 00:26:51;;;;;;;1999.90;999.90;;;1.40;28.40;;;;;;5034550;28;20173;-69
2023/02/07 00:29:20;;;;;;;1999.90;999.90;;;1.40;32.20;;;;;;5033996;28;20842;-70
2023/02/07 00:31:46;;;;;;;1999.90;999.90;;;1.40;34.50;;;;;;5034077;28;20542;-69
2023/02/07 00:34:12;;;;;;;1999.90;999.90;;;1.30;31.80;;;;;;5034345;28;20177;-69
2023/02/07 00:36:39;;;;;;;1999.90;999.90;;;1.30;31.50;;;;;;5037022;28;20427;-69
2023/02/07 00:39:07;;;;;;;1999.90;999.90;;;1.30;32.90;;;;;;5037141;28;20223;-69
2023/02/07 00:41:33;;;;;;;1999.90;999.90;;;1.20;23.70;;;;;;5035775;28;20638;-69
2023/02/07 00:43:59;;;;;;;1999.90;999.90;;;1.20;20.30;;;;;;5039586;28;20183;-70
2023/02/07 00:46:24;;;;;;;1999.90;999.90;;;1.10;23.70;;;;;;5048606;28;20175;-69
2023/02/07 00:48:51;;;;;;;1999.90;999.90;;;1.10;22.30;;;;;;5045002;28;20188;-69
2023/02/07 00:51:17;;;;;;;1999.90;999.90;;;1.00;28.60;;;;;;5043680;28;20534;-70
2023/02/07 00:53:43;;;;;;;1999.90;999.90;;;1.00;29.80;;;;;;5045941;28;20175;-69
2023/02/07 00:56:10;;;;;;;1999.90;999.90;;;1.00;28.60;;;;;;5036595;28;20450;-69
2023/02/07 00:58:37;;;;;;;1999.90;999.90;;;1.10;51.00;;;;;;5016397;28;20646;-69
2023/02/07 01:01:04;;;;;;;1999.90;999.90;;;1.00;31.50;;;;;;5033319;28;20171;-69
2023/02/07 01:03:30;;;;;;;1999.90;999.90;;;1.00;39.50;;;;;;5033770;28;20685;-70
2023/02/07 01:05:56;;;;;;;1999.90;999.90;;;1.00;37.10;;;;;;5032695;28;20207;-69
2023/02/07 01:08:21;;;;;;;1999.90;999.90;;;0.90;57.80;;;;;;5044267;28;20251;-69
2023/02/07 01:10:47;;;;;;;1999.90;999.90;;;1.00;40.80;;;;;;5036036;28;20807;-69
2023/02/07 01:13:14;;;;;;;1999.90;999.90;;;1.00;41.10;;;;;;5032699;28;20173;-69
2023/02/07 01:15:42;;;;;;;1999.90;999.90;;;1.00;38.50;;;;;;5035111;28;20446;-70
2023/02/07 01:18:09;;;;;;;1999.90;999.90;;;0.90;34.70;;;;;;5043757;28;20172;-70
2023/02/07 01:20:35;;;;;;;1999.90;999.90;;;0.90;31.90;;;;;;5023879;28;20199;-69
2023/02/07 01:23:00;;;;;;;1999.90;999.90;;;0.90;36.70;;;;;;5034715;28;20169;-70
2023/02/07 01:25:26;;;;;;;1999.90;999.90;;;0.80;41.00;;;;;;5035597;28;20564;-70
2023/02/07 01:27:52;;;;;;;1999.90;999.90;;;0.90;37.40;;;;;;5044524;28;20168;-69
2023/02/07 01:30:18;;;;;;;1999.90;999.90;;;0.80;30.80;;;;;;5018174;28;20520;-69
2023/02/07 01:32:43;;;;;;;1999.90;999.90;;;0.80;25.80;;;;;;5039096;28;20164;-70
2023/02/07 01:35:09;;;;;;;1999.90;999.90;;;0.70;22.10;;;;;;5036464;28;20200;-69
2023/02/07 01:37:34;;;;;;;1999.90;999.90;;;0.70;20.40;;;;;;5037890;28;20169;-69
2023/02/07 01:40:01;;;;;;;1999.90;999.90;;;0.70;23.50;;;;;;5035565;28;20191;-70
2023/02/07 01:42:27;;;;;;;1999.90;999.90;;;0.60;21.40;;;;;;5033936;28;20650;-69
2023/02/07 01:44:52;;;;;;;1999.90;999.90;;;0.60;19.50;;;;;;5033850;28;20180;-69
2023/02/07 01:47:21;;;;;;;1999.90;999.90;;;0.60;16.50;;;;;;5034646;28;20669;-69
2023/02/07 01:49:48;;;;;;;1999.90;999.90;;;0.60;19.10;;;;;;5033877;28;20293;-69
2023/02/07 01:52:23;;;;;;;1999.90;999.90;;;0.60;20.00;;;;;;5033744;28;20180;-69
2023/02/07 01:54:52;;;;;;;1999.90;999.90;;;0.50;17.00;;;;;;5032054;28;20202;-70
2023/02/07 01:57:20;;;;;;;1999.90;999.90;;;0.50;19.90;;;;;;5032191;28;20545;-69
2023/02/07 01:59:46;;;;;;;1999.90;999.90;;;0.50;12.80;;;;;;5036361;28;20194;-69
2023/02/07 02:02:14;;;;;;;1999.90;999.90;;;0.40;13.10;;;;;;5035909;28;20176;-70
2023/02/07 02:04:41;;;;;;;1999.90;999.90;;;0.40;9.70;;;;;;5042389;28;20178;-70
2023/02/07 02:07:08;;;;;;;1999.90;999.90;;;0.40;12.30;;;;;;5042152;28;20169;-69
2023/02/07 02:09:36;;;;;;;1999.90;999.90;;;0.40;12.70;;;;;;5031888;28;20187;-69
2023/02/07 02:12:13;;;;;;;1999.90;999.90;;;0.40;17.40;;;;;;5033281;28;20185;-69
2023/02/07 02:14:44;;;;;;;1999.90;999.90;;;0.40;15.70;;;;;;5034892;28;20211;-68
2023/02/07 02:17:39;;;;;;;1999.90;999.90;;;0.40;14.90;;;;;;5033580;28;20244;-69
2023/02/07 02:20:35;;;;;;;1999.90;999.90;;;0.30;7.20;;;;;;5034470;28;20200;-69
2023/02/07 02:23:33;;;;;;;1999.90;999.90;;;0.30;12.10;;;;;;5035166;28;20173;-69
2023/02/07 02:26:18;;;;;;;1999.90;999.90;;;0.30;9.90;;;;;;5034120;28;20184;-69
2023/02/07 02:29:13;;;;;;;1999.90;999.90;;;0.30;6.00;;;;;;5034054;28;20208;-69
2023/02/07 02:31:41;;;;;;;1999.90;999.90;;;0.30;6.40;;;;;;5040025;28;20173;-69
2023/02/07 02:34:39;;;;;;;1999.90;999.90;;;0.20;7.20;;;;;;5045206;28;20200;-69
2023/02/07 02:37:37;;;;;;;1999.90;999.90;;;0.20;11.00;;;;;;5023654;28;20725;-70
2023/02/07 02:40:17;;;;;;;1999.90;999.90;;;0.20;13.40;;;;;;4996060;28;20200;-69
2023/02/07 02:42:53;;;;;;;1999.90;999.90;;;0.20;8.80;;;;;;5036005;28;20164;-70
2023/02/07 02:45:29;;;;;;;1999.90;999.90;;;0.20;7.30;;;;;;5036670;28;20180;-69
2023/02/07 02:47:55;;;;;;;1999.90;999.90;;;0.10;6.30;;;;;;5035308;28;20175;-69
2023/02/07 02:50:26;;;;;;;1999.90;999.90;;;0.10;9.70;;;;;;5039266;28;20243;-69
2023/02/07 02:52:52;;;;;;;1999.90;999.90;;;0.10;11.70;;;;;;5036599;28;20177;-70
2023/02/07 02:55:27;;;;;;;1999.90;999.90;;;0.10;11.80;;;;;;5035188;28;20219;-69
2023/02/07 02:58:10;;;;;;;1999.90;999.90;;;0.10;9.90;;;;;;5039836;28;20190;-70
2023/02/07 03:00:55;;;;;;;1999.90;999.90;;;0.10;4.10;;;;;;5048005;28;20234;-69
2023/02/07 03:03:52;;;;;;;1999.90;999.90;;;0.00;5.00;;;;;;5040029;28;20176;-69
2023/02/07 03:06:45;;;;;;;1999.90;999.90;;;0.00;7.80;;;;;;5037499;28;20172;-69
2023/02/07 03:09:35;;;;;;;1999.90;999.90;;;-0.10;8.20;;;;;;5041457;28;20195;-69
2023/02/07 03:12:21;;;;;;;1999.90;999.90;;;0.00;11.10;;;;;;5044138;28;20211;-70
2023/02/07 03:14:57;;;;;;;1999.90;999.90;;;0.00;17.70;;;;;;5051124;28;20235;-69
2023/02/07 03:17:52;;;;;;;1999.90;999.90;;;-0.10;18.30;;;;;;5042197;28;20203;-70
2023/02/07 03:20:36;;;;;;;1999.90;999.90;;;-0.10;17.10;;;;;;5037367;28;20238;-69
2023/02/07 03:23:05;;;;;;;1999.90;999.90;;;-0.10;18.10;;;;;;5045472;28;20175;-69
2023/02/07 03:25:31;;;;;;;1999.90;999.90;;;-0.20;22.50;;;;;;5023793;28;20263;-69
2023/02/07 03:27:57;;;;;;;1999.90;999.90;;;-0.20;24.10;;;;;;5038313;28;20181;-69
2023/02/07 03:30:29;;;;;;;1999.90;999.90;;;-0.20;27.60;;;;;;5041123;28;20257;-69
2023/02/07 03:32:58;;;;;;;1999.90;999.90;;;-0.20;25.90;;;;;;5038463;28;20521;-69
2023/02/07 03:35:30;;;;;;;1999.90;999.90;;;-0.20;26.70;;;;;;5040516;28;20557;-69
2023/02/07 03:37:58;;;;;;;1999.90;999.90;;;-0.30;24.20;;;;;;5041440;28;20192;-69
2023/02/07 03:40:29;;;;;;;1999.90;999.90;;;-0.20;27.40;;;;;;5041555;28;20231;-69
2023/02/07 03:43:10;;;;;;;1999.90;999.90;;;-0.30;29.30;;;;;;5037180;28;20164;-70
2023/02/07 03:45:35;;;;;;;1999.90;999.90;;;-0.30;30.10;;;;;;5052190;28;20206;-69
2023/02/07 03:48:01;;;;;;;1999.90;999.90;;;0.60;25.10;;;;;;5051815;28;20169;-69
2023/02/07 03:50:27;;;;;;;1999.90;999.90;;;-0.30;22.20;;;;;;5046972;28;20462;-70
2023/02/07 03:52:52;;;;;;;1999.90;999.90;;;-0.30;23.50;;;;;;5036156;28;20251;-69
2023/02/07 03:55:18;;;;;;;1999.90;999.90;;;-0.30;25.70;;;;;;5036207;28;20195;-69
2023/02/07 03:57:43;;;;;;;1999.90;999.90;;;-0.40;23.60;;;;;;5045987;28;20174;-70
2023/02/07 04:00:10;;;;;;;1999.90;999.90;;;-0.40;21.30;;;;;;5051683;28;20192;-69
2023/02/07 04:02:36;;;;;;;1999.90;999.90;;;-0.50;15.50;;;;;;5041981;28;20160;-70
2023/02/07 04:05:02;;;;;;;1999.90;999.90;;;-0.50;23.30;;;;;;5033275;28;20218;-70
2023/02/07 04:07:27;;;;;;;1999.90;999.90;;;-1.10;30.00;;;;;;5033453;28;20177;-69
2023/02/07 04:09:53;;;;;;;1999.90;999.90;;;-0.50;30.70;;;;;;5024901;28;20443;-69
2023/02/07 04:12:18;;;;;;;1999.90;999.90;;;-0.50;32.30;;;;;;5038079;28;20249;-69
2023/02/07 04:14:44;;;;;;;1999.90;999.90;;;-0.40;37.40;;;;;;5046138;28;20279;-69
2023/02/07 04:17:10;;;;;;;1999.90;999.90;;;-0.40;45.10;;;;;;5017869;28;20177;-69
2023/02/07 04:19:35;;;;;;;1999.90;999.90;;;-0.40;48.70;;;;;;5047194;28;20185;-70
2023/02/07 04:22:01;;;;;;;1999.90;999.90;;;-0.40;54.10;;;;;;5048927;28;20175;-69
2023/02/07 04:24:30;;;;;;;1999.90;999.90;;;-0.40;51.60;;;;;;5033737;28;20207;-69
2023/02/07 04:26:56;;;;;;;1999.90;999.90;;;-0.30;50.20;;;;;;5035855;28;20727;-69
2023/02/07 04:29:21;;;;;;;1999.90;999.90;;;-0.40;41.10;;;;;;5037448;28;20204;-69
2023/02/07 04:31:47;;;;;;;1999.90;999.90;;;-0.40;41.90;;;;;;5033625;28;20452;-69
2023/02/07 04:34:13;;;;;;;1999.90;999.90;;;-0.40;43.20;;;;;;5033686;28;20533;-69
2023/02/07 04:36:38;;;;;;;1999.90;999.90;;;-0.40;43.90;;;;;;5033773;28;20199;-68
2023/02/07 04:39:04;;;;;;;1999.90;999.90;;;-0.30;47.00;;;;;;5033751;28;20180;-69
2023/02/07 04:41:30;;;;;;;1999.90;999.90;;;-0.40;46.50;;;;;;5033503;28;20545;-69
2023/02/07 04:43:55;;;;;;;1999.90;999.90;;;-0.30;48.00;;;;;;5033656;28;20168;-69
2023/02/07 04:46:21;;;;;;;1999.90;999.90;;;-0.30;42.80;;;;;;5033704;28;20181;-69
2023/02/07 04:48:47;;;;;;;1999.90;999.90;;;-0.30;43.10;;;;;;5033626;28;20419;-69
2023/02/07 04:51:14;;;;;;;1999.90;999.90;;;-0.40;45.20;;;;;;5033268;28;20230;-69
2023/02/07 04:53:40;;;;;;;1999.90;999.90;;;-0.40;43.10;;;;;;5033476;28;20267;-69
2023/02/07 04:56:06;;;;;;;1999.90;999.90;;;-0.40;40.80;;;;;;5033291;28;20299;-69
2023/02/07 04:58:32;;;;;;;1999.90;999.90;;;-0.40;42.70;;;;;;5033298;28;20204;-69
2023/02/07 05:00:58;;;;;;;1999.90;999.90;;;-0.50;49.00;;;;;;5033124;28;20192;-69
2023/02/07 05:03:23;;;;;;;1999.90;999.90;;;-0.50;53.70;;;;;;5033380;28;20346;-69
2023/02/07 05:05:52;;;;;;;1999.90;999.90;;;-0.50;49.50;;;;;;5033659;28;20172;-69
2023/02/07 05:08:18;;;;;;;1999.90;999.90;;;-0.50;44.70;;;;;;5038841;28;20199;-69
2023/02/07 05:10:45;;;;;;;1999.90;999.90;;;-0.50;45.90;;;;;;5029645;28;20202;-70
2023/02/07 05:13:10;;;;;;;1999.90;999.90;;;-0.50;46.70;;;;;;5047584;28;20169;-70
2023/02/07 05:15:36;;;;;;;1999.90;999.90;;;-0.50;48.90;;;;;;5047029;28;20731;-69
2023/02/07 05:18:03;;;;;;;1999.90;999.90;;;1.20;41.60;;;;;;5046351;28;20235;-70
2023/02/07 05:20:29;;;;;;;1999.90;999.90;;;-0.60;34.00;;;;;;5047378;28;20216;-70
2023/02/07 05:22:55;;;;;;;1999.90;999.90;;;-0.50;39.00;;;;;;5047386;28;20175;-70
2023/02/07 05:25:20;;;;;;;1999.90;999.90;;;-0.60;44.50;;;;;;5047121;28;20412;-70
2023/02/07 05:27:46;;;;;;;1999.90;999.90;;;-0.50;48.30;;;;;;5046985;28;20210;-69
2023/02/07 05:30:12;;;;;;;1999.90;999.90;;;-0.60;41.10;;;;;;5043150;28;20270;-69
2023/02/07 05:35:22;;;;;;;1999.90;999.90;;;-0.60;34.90;;;;;;5045332;28;20215;-70
2023/02/07 05:37:47;;;;;;;1999.90;999.90;;;-0.60;31.60;;;;;;5044656;28;20184;-70
2023/02/07 05:40:13;;;;;;;1999.90;999.90;;;-0.70;28.80;;;;;;5044911;28;20179;-70
2023/02/07 05:42:39;;;;;;;1999.90;999.90;;;;;;;;;;5026098;28;20176;-70
2023/02/07 05:45:07;;;;;;;1999.90;999.90;;;-0.70;36.20;;;;;;5044680;28;20172;-70
2023/02/07 05:47:33;;;;;;;1999.90;999.90;;;-0.70;40.20;;;;;;5044612;28;20263;-69
2023/02/07 05:49:58;;;;;;;1999.90;999.90;;;-0.70;41.20;;;;;;5044187;28;20218;-69
2023/02/07 05:52:24;;;;;;;1999.90;999.90;;;-0.70;42.70;;;;;;5044517;28;20182;-70
2023/02/07 05:54:50;;;;;;;1999.90;999.90;;;-0.70;37.40;;;;;;5044551;28;20203;-70
2023/02/07 05:57:15;;;;;;;1999.90;999.90;;;-0.80;38.60;;;;;;5045458;28;20165;-70
2023/02/07 05:59:41;;;;;;;1999.90;999.90;;;-0.80;37.50;;;;;;5045468;28;20188;-69
2023/02/07 06:02:06;;;;;;;1999.90;999.90;;;-0.80;39.10;;;;;;5045575;28;20176;-69
2023/02/07 06:04:32;;;;;;;1999.90;999.90;;;-0.80;40.90;;;;;;5028335;28;20182;-70
2023/02/07 06:06:57;;;;;;;1999.90;999.90;;;-0.80;41.80;;;;;;5044844;28;20203;-70
2023/02/07 06:09:23;;;;;;;1999.90;999.90;;;-0.80;40.00;;;;;;5044516;28;20188;-70
2023/02/07 06:11:49;;;;;;;1999.90;999.90;;;-0.80;34.00;;;;;;5048988;28;20263;-70
2023/02/07 06:14:14;;;;;;;1999.90;999.90;;;-0.80;31.70;;;;;;5049153;28;20172;-69
2023/02/07 06:16:40;;;;;;;1999.90;999.90;;;-0.80;31.80;;;;;;5049059;28;20204;-70
2023/02/07 06:19:05;;;;;;;1999.90;999.90;;;-0.90;30.00;;;;;;5044814;28;20192;-70
2023/02/07 06:21:31;;;;;;;1999.90;999.90;;;-0.90;33.80;;;;;;5043519;28;20169;-70
2023/02/07 06:23:56;;;;;;;1999.90;999.90;;;-1.00;32.70;;;;;;5043753;28;20176;-70
2023/02/07 06:26:22;;;;;;;1999.90;999.90;;;-0.90;42.10;;;;;;5043519;28;20172;-69
2023/02/07 06:28:47;;;;;;;1999.90;999.90;;;-0.90;39.20;;;;;;5041874;28;20705;-69
2023/02/07 06:31:13;;;;;;;1999.90;999.90;;;-0.90;25.20;;;;;;5043390;28;20264;-69
2023/02/07 06:33:39;;;;;;;1999.90;999.90;;;-1.00;23.50;;;;;;5042533;28;20176;-69
2023/02/07 06:36:04;;;;;;;1999.90;999.90;;;-1.00;22.60;;;;;;5041701;28;20203;-69
2023/02/07 06:38:30;;;;;;;1999.90;999.90;;;-1.00;50.30;;;;;;5041826;28;20581;-69
2023/02/07 06:40:56;;;;;;;1999.90;999.90;;;-1.00;32.10;;;;;;5042778;28;20403;-69
2023/02/07 06:43:21;;;;;;;1999.90;999.90;;;-1.10;38.00;;;;;;5042869;28;20247;-69
2023/02/07 06:45:47;;;;;;;1999.90;999.90;;;-1.10;45.10;;;;;;5043949;28;20180;-69
2023/02/07 06:48:13;;;;;;;1999.90;999.90;;;-1.20;40.60;;;;;;5042271;28;20172;-69
2023/02/07 06:50:38;;;;;;;1999.90;999.90;;;-1.10;49.40;;;;;;5044091;28;20215;-69
2023/02/07 06:53:04;;;;;;;1999.90;999.90;;;-1.10;51.50;;;;;;5046180;28;20211;-70
2023/02/07 06:55:31;;;;;;;1999.90;999.90;;;-1.10;54.20;;;;;;5042277;28;20578;-69
2023/02/07 06:57:57;;;;;;;1999.90;999.90;;;-1.10;56.30;;;;;;5035490;28;20597;-69
2023/02/07 07:00:24;;;;;;;1999.90;999.90;;;-1.20;42.70;;;;;;5035402;28;20216;-69
2023/02/07 07:02:49;;;;;;;1999.90;999.90;;;-1.20;38.60;;;;;;5035417;28;20167;-69
2023/02/07 07:05:15;;;;;;;1999.90;999.90;;;-1.20;34.80;;;;;;5035915;28;20172;-69
2023/02/07 07:07:41;;;;;;;1999.90;999.90;;;-1.20;36.50;;;;;;5035294;28;20445;-69
2023/02/07 07:10:07;;;;;;;1999.90;999.90;;;-1.10;48.90;;;;;;5035246;28;20259;-70
2023/02/07 07:12:33;;;;;;;1999.90;999.90;;;-1.10;50.40;;;;;;5035521;28;20655;-69
2023/02/07 07:14:58;;;;;;;1999.90;999.90;;;-1.20;45.40;;;;;;5035299;28;20550;-70
2023/02/07 07:17:24;;;;;;;1999.90;999.90;;;-1.10;46.30;;;;;;5035425;28;20252;-69
2023/02/07 07:19:50;;;;;;;1999.90;999.90;;;-1.10;42.00;;;;;;5038636;28;20188;-69
2023/02/07 07:22:16;;;;;;;1999.90;999.90;;;-1.20;48.00;;;;;;5026926;28;20222;-70
2023/02/07 07:24:42;;;;;;;1999.90;999.90;;;-1.10;53.00;;;;;;5044981;28;20776;-69
2023/02/07 07:27:07;;;;;;;1999.90;999.90;;;-1.10;60.00;;;;;;5035334;28;20259;-69
2023/02/07 07:29:33;;;;;;;1999.90;999.90;;;-1.10;70.60;;;;;;5035926;28;20200;-69
2023/02/07 07:31:58;;;;;;;1999.90;999.90;;;-1.00;84.10;;;;;;5043228;28;20687;-69
2023/02/07 07:34:24;;;;;;;1999.90;999.90;;;-1.00;90.30;;;;;;5044115;28;20265;-69
2023/02/07 07:36:50;;;;;;;1999.90;999.90;;;-1.00;91.90;;;;;;5043599;28;20218;-70
2023/02/07 07:39:16;;;;;;;1999.90;999.90;;;-0.90;95.70;;;;;;5043368;28;20220;-70
2023/02/07 07:41:42;;;;;;;1999.90;999.90;;;-0.90;93.50;;;;;;5043419;28;20173;-69
2023/02/07 07:44:07;;;;;;;1999.90;999.90;;;-0.80;94.60;;;;;;5044003;28;20188;-70
2023/02/07 07:46:33;;;;;;;1999.90;999.90;;;-0.80;96.40;;;;;;5027556;28;20419;-70
2023/02/07 07:48:58;;;;;;;1999.90;999.90;;;-0.70;98.20;;;;;;5048527;28;20189;-70
2023/02/07 07:51:24;;;;;;;1999.90;999.90;;;-0.60;99.90;;;;;;5042832;28;20172;-69
2023/02/07 07:53:50;;;;;;;1999.90;999.90;;;-0.60;99.90;;;;;;5042813;28;20176;-69
2023/02/07 07:56:15;;;;;;;1999.90;999.90;;;-0.50;99.90;;;;;;5043142;28;20928;-70
2023/02/07 07:58:41;;;;;;;1999.90;999.90;;;-0.40;99.90;;;;;;5042407;28;20196;-70
2023/02/07 08:01:06;;;;;;;1999.90;999.90;;;-0.40;99.90;;;;;;5041901;28;20168;-69
2023/02/07 08:03:32;;;;;;;1999.90;999.90;;;-0.30;99.90;;;;;;5042165;28;20185;-70
2023/02/07 08:05:58;;;;;;;1999.90;999.90;;;-0.20;99.80;;;;;;5041727;28;20231;-70
2023/02/07 08:08:23;;;;;;;1999.90;999.90;;;-0.10;99.90;;;;;;5042135;28;20176;-70
2023/02/07 08:10:49;;;;;;;1999.90;999.90;;;-0.20;99.90;;;;;;5041083;28;20207;-70
2023/02/07 08:13:15;;;;;;;1999.90;999.90;;;-0.10;99.90;;;;;;5040941;28;20653;-70
2023/02/07 08:15:42;;;;;;;1999.90;999.90;;;0.00;99.90;;;;;;5040670;28;20299;-69
2023/02/07 08:18:07;;;;;;;1999.90;999.90;;;0.00;99.90;;;;;;5039570;28;20233;-70
2023/02/07 08:20:33;;;;;;;1999.90;999.90;;;0.10;99.90;;;;;;5040972;28;20500;-70
2023/02/07 08:22:59;;;;;;;1999.90;999.90;;;0.10;99.90;;;;;;5040610;28;20164;-70
2023/02/07 08:25:25;;;;;;;1999.90;999.90;;;0.20;99.90;;;;;;5040339;28;20263;-70
2023/02/07 08:27:51;;;;;;;1999.90;999.90;;;0.30;99.90;;;;;;5040171;28;20856;-70
2023/02/07 08:30:17;;;;;;;1999.90;999.90;;;0.40;99.90;;;;;;5040880;28;20458;-70
2023/02/07 08:32:43;;;;;;;1999.90;999.90;;;0.50;99.90;;;;;;5041004;28;20176;-70
2023/02/07 08:35:10;;;;;;;1999.90;999.90;;;0.50;95.60;;;;;;5039474;28;20602;-70
2023/02/07 08:37:35;;;;;;;1999.90;999.90;;;0.60;94.10;;;;;;5040893;28;20184;-69
2023/02/07 08:40:02;;;;;;;1999.90;999.90;;;0.70;93.30;;;;;;5039719;28;20192;-70
2023/02/07 08:42:27;;;;;;;1999.90;999.90;;;0.70;92.60;;;;;;5039546;28;20540;-70
2023/02/07 08:44:53;;;;;;;1999.90;999.90;;;0.80;90.50;;;;;;5033836;28;20179;-70
2023/02/07 08:47:19;;;;;;;1999.90;999.90;;;0.80;75.50;;;;;;5033657;28;20173;-70
2023/02/07 08:49:44;;;;;;;1999.90;999.90;;;0.80;85.30;;;;;;5035297;28;20184;-70
2023/02/07 08:52:11;;;;;;;1999.90;999.90;;;1.00;89.60;;;;;;5039872;28;20469;-69
2023/02/07 08:54:36;;;;;;;1999.90;999.90;;;1.10;68.00;;;;;;5039072;28;20172;-70
2023/02/07 08:57:02;;;;;;;1999.90;999.90;;;1.10;69.60;;;;;;5038937;28;20225;-70
2023/02/07 08:59:28;;;;;;;1999.90;999.90;;;1.20;45.10;;;;;;5038651;28;20238;-70
2023/02/07 09:01:54;;;;;;;1999.90;999.90;;;1.30;25.30;;;;;;5038877;28;20427;-70
2023/02/07 09:04:19;;;;;;;1999.90;999.90;;;1.30;19.60;;;;;;5038622;28;20228;-70
2023/02/07 09:06:45;;;;;;;1999.90;999.90;;;1.30;8.40;;;;;;5038062;28;20186;-70
2023/02/07 09:09:10;;;;;;;1999.90;999.90;;;1.40;1.00;;;;;;5038335;28;20216;-70
2023/02/07 09:11:36;;;;;;;1999.90;999.90;;;1.50;1.00;;;;;;5039086;28;20182;-70
2023/02/07 09:14:02;;;;;;;1999.90;999.90;;;1.60;1.00;;;;;;5038894;28;20267;-70
2023/02/07 09:16:28;;;;;;;1999.90;999.90;;;1.60;1.00;;;;;;5038869;28;20210;-70
2023/02/07 09:18:53;;;;;;;1999.90;999.90;;;1.70;1.00;;;;;;5037416;28;20423;-70
2023/02/07 09:21:19;;;;;;;1999.90;999.90;;;1.70;1.00;;;;;;5038116;28;20637;-70
2023/02/07 09:23:45;;;;;;;1999.90;999.90;;;1.70;1.00;;;;;;5037223;28;20168;-70
2023/02/07 09:26:19;;;;;;;1999.90;999.90;;;1.90;1.00;;;;;;5037819;28;20387;-70
2023/02/07 09:28:44;;;;;;;1999.90;999.90;;;2.00;1.00;;;;;;5037849;28;20200;-70
2023/02/07 09:31:12;;;;;;;1999.90;999.90;;;2.00;1.00;;;;;;5036684;28;20577;-70
2023/02/07 09:33:38;;;;;;;1999.90;999.90;;;2.10;1.00;;;;;;5037036;28;20195;-70
2023/02/07 09:36:04;;;;;;;1999.90;999.90;;;2.20;1.00;;;;;;5036896;28;20196;-70
2023/02/07 09:38:30;;;;;;;1999.90;999.90;;;2.00;1.00;;;;;;5032890;28;20644;-70
2023/02/07 09:40:58;;;;;;;1999.90;999.90;;;2.30;99.90;;;;;;5031849;28;20259;-70
2023/02/07 09:43:42;;;;;;;1999.90;999.90;;;2.40;99.90;;;;;;5032114;28;20172;-70
2023/02/07 09:46:23;;;;;;;1999.90;999.90;;;2.40;1.00;;;;;;5031652;28;20710;-69
2023/02/07 09:49:03;;;;;;;1999.90;999.90;;;2.40;1.00;;;;;;5031926;28;20200;-70
2023/02/07 09:51:30;;;;;;;1999.90;999.90;;;2.50;99.90;;;;;;5032014;28;20175;-69
2023/02/07 09:54:10;;;;;;;1999.90;999.90;;;2.50;1.00;;;;;;5032074;28;20188;-70
2023/02/07 09:56:37;;;;;;;1999.90;999.90;;;2.50;99.90;;;;;;5031893;28;20203;-70
2023/02/07 09:59:23;;;;;;;1999.90;999.90;;;2.50;99.90;;;;;;5031139;28;20717;-70
2023/02/07 10:01:53;;;;;;;1999.90;999.90;;;2.60;99.90;;;;;;5031932;28;20198;-70
2023/02/07 10:04:22;;;;;;;1999.90;999.90;;;2.60;32.10;;;;;;5031839;28;20310;-69
2023/02/07 10:06:51;;;;;;;1999.90;999.90;;;2.70;1.00;;;;;;5030251;28;20177;-70
2023/02/07 10:09:30;;;;;;;1999.90;999.90;;;2.80;99.90;;;;;;5031753;28;20196;-70
2023/02/07 10:12:36;;;;;;;1999.90;999.90;;;2.90;99.90;;;;;;5031316;28;20196;-70
2023/02/07 10:15:21;;;;;;;1999.90;999.90;;;3.00;99.90;;;;;;5030978;28;20208;-68
2023/02/07 10:18:15;;;;;;;1999.90;999.90;;;3.20;1.00;;;;;;5031426;28;20684;-69
2023/02/07 10:21:00;;;;;;;1999.90;999.90;;;3.30;1.00;;;;;;5014388;28;20255;-69
2023/02/07 10:23:53;;;;;;;1999.90;999.90;;;3.40;1.00;;;;;;5032272;28;20580;-69
2023/02/07 10:26:31;;;;;;;1999.90;999.90;;;3.50;1.00;;;;;;5031492;28;20168;-68
2023/02/07 10:29:18;;;;;;;1999.90;999.90;;;3.60;99.90;;;;;;5031743;28;20223;-69
2023/02/07 10:31:49;;;;;;;1999.90;999.90;;;3.70;99.90;;;;;;5031280;28;20178;-68
2023/02/07 10:34:26;;;;;;;1999.90;999.90;;;3.70;99.90;;;;;;5032046;28;20407;-68
2023/02/07 10:36:55;;;;;;;1999.90;999.90;;;3.80;99.90;;;;;;5032607;28;20215;-69
2023/02/07 10:39:26;;;;;;;1999.90;999.90;;;3.90;1.00;;;;;;5031414;28;20189;-69
2023/02/07 10:41:56;;;;;;;1999.90;999.90;;;4.00;99.90;;;;;;5031191;28;20179;-69
2023/02/07 10:44:23;;;;;;;1999.90;999.90;;;4.00;99.90;;;;;;5031236;28;20172;-70
2023/02/07 10:47:12;;;;;;;1999.90;999.90;;;4.10;99.90;;;;;;5031136;28;20407;-69
2023/02/07 10:49:37;;;;;;;1999.90;999.90;;;4.20;99.90;;;;;;5031404;28;20240;-70
2023/02/07 10:52:24;;;;;;;1999.90;999.90;;;4.40;99.90;;;;;;5031215;28;20415;-69
2023/02/07 10:55:02;;;;;;;1999.90;999.90;;;4.50;99.90;;;;;;5030682;28;20168;-69
2023/02/07 10:57:29;;;;;;;1999.90;999.90;;;4.60;99.90;;;;;;5031967;28;20414;-69
2023/02/07 11:00:04;;;;;;;1999.90;999.90;;;4.70;99.90;;;;;;5035040;28;20222;-69
2023/02/07 11:02:30;;;;;;;1999.90;999.90;;;4.80;99.90;;;;;;5040065;28;20445;-70
2023/02/07 11:05:01;;;;;;;1999.90;999.90;;;4.90;99.90;;;;;;5043108;28;20180;-70
2023/02/07 11:07:28;;;;;;;1999.90;999.90;;;5.00;99.90;;;;;;5044440;28;20425;-70
2023/02/07 11:10:15;;;;;;;1999.90;999.90;;;5.10;99.90;;;;;;5044634;28;20446;-70
2023/02/07 11:13:00;;;;;;;1999.90;999.90;;;5.20;99.90;;;;;;5044125;28;20407;-70
2023/02/07 11:15:37;;;;;;;1999.90;999.90;;;5.30;99.90;;;;;;5044224;28;20450;-70
2023/02/07 11:18:03;;;;;;;1999.90;999.90;;;5.50;99.90;;;;;;5026759;28;20414;-70
2023/02/07 11:20:32;;;;;;;1999.90;999.90;;;5.60;99.90;;;;;;5044600;28;20496;-70
2023/02/07 11:22:58;;;;;;;1999.90;999.90;;;5.50;99.90;;;;;;5043829;28;20399;-69
2023/02/07 11:25:40;;;;;;;1999.90;999.90;;;5.60;99.90;;;;;;5044487;28;20414;-70
2023/02/07 11:28:07;;;;;;;1999.90;999.90;;;5.60;99.90;;;;;;5043922;28;20399;-70
2023/02/07 11:30:35;;;;;;;1999.90;999.90;;;5.60;99.90;;;;;;5026224;28;20454;-70
2023/02/07 11:33:08;;;;;;;1999.90;999.90;;;5.70;99.90;;;;;;5043172;28;20422;-69
2023/02/07 11:35:35;;;;;;;1999.90;999.90;;;5.70;99.90;;;;;;5045056;28;20461;-70
2023/02/07 11:38:12;;;;;;;1999.90;999.90;;;5.90;99.90;;;;;;5046195;28;20404;-70
2023/02/07 11:40:47;;;;;;;1999.90;999.90;;;6.20;99.90;;;;;;5044991;28;20810;-69
2023/02/07 11:43:14;;;;;;;1999.90;999.90;;;6.60;99.90;;;;;;5043400;28;20915;-70
2023/02/07 11:45:44;;;;;;;1999.90;999.90;;;7.40;99.90;;;;;;5042250;28;20403;-70
2023/02/07 11:48:19;;;;;;;1999.90;999.90;;;8.40;99.90;;;;;;5042645;28;20415;-70
2023/02/07 11:50:51;;;;;;;1999.90;999.90;;;9.40;99.90;;;;;;5042581;28;20440;-70
2023/02/07 11:53:23;;;;;;;1999.90;999.90;;;10.40;99.90;;;;;;5042035;28;20500;-70
2023/02/07 11:55:53;;;;;;;1999.90;999.90;;;11.20;99.90;;;;;;5042112;28;20466;-70
2023/02/07 11:58:24;;;;;;;1999.90;999.90;;;11.80;97.40;;;;;;5041918;28;20404;-70
2023/02/07 12:00:50;;;;;;;1999.90;999.90;;;12.20;88.50;;;;;;5041197;28;20412;-70
2023/02/07 12:03:27;;;;;;;1999.90;999.90;;;12.50;81.20;;;;;;5042103;28;20450;-70
2023/02/07 12:05:56;;;;;;;1999.90;999.90;;;12.60;67.60;;;;;;5041081;28;20187;-70
2023/02/07 12:08:26;;;;;;;1999.90;999.90;;;13.20;65.40;;;;;;5039536;28;20412;-70
2023/02/07 12:11:23;;;;;;;1999.90;999.90;;;13.40;48.10;;;;;;5040560;28;20419;-71
2023/02/07 12:13:54;;;;;;;1999.90;999.90;;;13.90;49.60;;;;;;5039149;28;20903;-71
2023/02/07 12:16:28;;;;;;;1999.90;999.90;;;14.50;43.50;;;;;;5038068;28;20471;-71
2023/02/07 12:19:02;;;;;;;1999.90;999.90;;;14.70;35.20;;;;;;5038814;28;20427;-70